createdAt,value
2017-12-09T00:01:55.484Z,127.37
2017-12-09T00:04:21.881Z,91.80
2017-12-09T00:06:48.304Z,97.65
2017-12-09T00:09:14.769Z,95.53
2017-12-09T00:11:41.206Z,111.57
2017-12-09T00:14:07.639Z,110.45
2017-12-09T00:16:34.073Z,105.07
2017-12-09T00:19:00.507Z,89.93
2017-12-09T00:21:26.877Z,82.45
2017-12-09T00:23:53.209Z,93.93
2017-12-09T00:26:19.684Z,91.72
2017-12-09T00:28:46.144Z,87.00
2017-12-09T00:31:12.476Z,76.80
2017-12-09T00:33:38.925Z,84.93
2017-12-09T00:36:05.279Z,80.30
2017-12-09T00:38:31.620Z,82.70
2017-12-09T00:40:58.865Z,81.05
2017-12-09T00:43:25.364Z,83.68
2017-12-09T00:45:51.804Z,84.22
2017-12-09T00:48:18.234Z,88.53
2017-12-09T00:50:44.778Z,91.80
2017-12-09T00:53:11.310Z,97.18
2017-12-09T00:55:37.673Z,82.10
2017-12-09T00:58:04.824Z,82.97
2017-12-09T01:00:31.197Z,86.57
2017-12-09T01:02:57.661Z,81.65
2017-12-09T01:05:24.095Z,77.47
2017-12-09T01:07:50.460Z,81.47
2017-12-09T01:10:16.882Z,83.32
2017-12-09T01:12:43.202Z,77.95
2017-12-09T01:15:09.630Z,96.35
2017-12-09T01:17:36.167Z,89.75
2017-12-09T01:20:02.601Z,78.22
2017-12-09T01:22:29.036Z,80.80
2017-12-09T01:24:55.471Z,79.45
2017-12-09T01:27:22.007Z,73.80
2017-12-09T01:29:48.442Z,73.80
2017-12-09T01:32:14.875Z,73.60
2017-12-09T01:34:41.314Z,74.45
2017-12-09T01:37:07.746Z,79.15
2017-12-09T01:39:34.181Z,78.15
2017-12-09T01:42:00.616Z,70.57
2017-12-09T01:44:27.051Z,68.93
2017-12-09T01:46:53.502Z,72.70
2017-12-09T01:49:19.883Z,78.00
2017-12-09T01:51:46.250Z,89.55
2017-12-09T01:54:12.685Z,72.10
2017-12-09T01:56:39.122Z,81.25
2017-12-09T01:59:05.483Z,69.22
2017-12-09T02:01:31.885Z,69.35
2017-12-09T02:03:58.210Z,64.57
2017-12-09T02:06:24.651Z,64.72
2017-12-09T02:08:51.090Z,69.43
2017-12-09T02:11:17.418Z,60.40
2017-12-09T02:13:43.854Z,60.20
2017-12-09T02:16:10.288Z,60.97
2017-12-09T02:18:36.722Z,61.35
2017-12-09T02:21:03.054Z,59.10
2017-12-09T02:23:29.488Z,70.93
2017-12-09T02:25:55.924Z,72.87
2017-12-09T02:28:22.379Z,68.87
2017-12-09T02:30:48.794Z,70.70
2017-12-09T02:33:15.161Z,63.35
2017-12-09T02:35:41.560Z,58.45
2017-12-09T02:38:07.891Z,62.22
2017-12-09T02:40:34.327Z,67.87
2017-12-09T02:43:00.699Z,64.57
2017-12-09T02:45:27.094Z,60.95
2017-12-09T02:47:53.485Z,64.32
2017-12-09T02:50:19.981Z,64.93
2017-12-09T02:52:46.397Z,65.37
2017-12-09T02:55:12.831Z,59.20
2017-12-09T02:57:39.163Z,62.13
2017-12-09T03:00:05.598Z,69.03
2017-12-09T03:02:32.033Z,73.32
2017-12-09T03:04:58.456Z,63.38
2017-12-09T03:07:25.522Z,66.75
2017-12-09T03:09:51.871Z,64.45
2017-12-09T03:12:18.285Z,72.72
2017-12-09T03:14:44.820Z,61.95
2017-12-09T03:17:11.184Z,62.10
2017-12-09T03:19:37.586Z,66.12
2017-12-09T03:22:04.021Z,62.75
2017-12-09T03:24:31.173Z,70.53
2017-12-09T03:26:57.608Z,57.20
2017-12-09T03:29:24.041Z,59.35
2017-12-09T03:31:50.476Z,69.07
2017-12-09T03:34:16.930Z,59.45
2017-12-09T03:36:43.345Z,51.78
2017-12-09T03:39:09.778Z,53.92
2017-12-09T03:41:36.214Z,51.58
2017-12-09T03:44:02.649Z,53.47
2017-12-09T03:46:28.981Z,59.05
2017-12-09T03:48:55.416Z,60.75
2017-12-09T03:51:21.851Z,56.88
2017-12-09T03:53:48.285Z,50.67
2017-12-09T03:56:14.617Z,53.63
2017-12-09T03:58:40.986Z,47.28
2017-12-09T04:01:07.384Z,50.17
2017-12-09T04:03:33.818Z,56.53
2017-12-09T04:06:00.253Z,47.25
2017-12-09T04:08:26.622Z,46.08
2017-12-09T04:10:53.019Z,58.15
2017-12-09T04:13:19.454Z,52.08
2017-12-09T04:15:45.889Z,46.70
2017-12-09T04:18:12.324Z,57.05
2017-12-09T04:20:38.656Z,47.78
2017-12-09T04:23:05.091Z,51.60
2017-12-09T04:25:31.526Z,59.50
2017-12-09T04:27:57.857Z,56.90
2017-12-09T04:30:24.292Z,50.60
2017-12-09T04:32:50.743Z,62.85
2017-12-09T04:35:17.175Z,58.90
2017-12-09T04:37:43.596Z,61.22
2017-12-09T04:40:09.964Z,58.05
2017-12-09T04:42:36.368Z,59.05
2017-12-09T04:45:02.820Z,64.20
2017-12-09T04:47:30.051Z,67.07
2017-12-09T04:49:56.588Z,65.75
2017-12-09T04:52:23.021Z,62.00
2017-12-09T04:57:20.601Z,71.05
2017-12-09T04:59:47.035Z,61.78
2017-12-09T05:02:13.470Z,61.10
2017-12-09T05:04:39.904Z,63.67
2017-12-09T05:07:06.339Z,75.70
2017-12-09T05:09:32.671Z,78.32
2017-12-09T05:11:59.127Z,78.35
2017-12-09T05:14:25.541Z,78.10
2017-12-09T05:16:51.873Z,91.05
2017-12-09T05:19:18.261Z,74.62
2017-12-09T05:21:44.742Z,59.00
2017-12-09T05:24:11.179Z,75.20
2017-12-09T05:26:37.546Z,72.12
2017-12-09T05:29:03.947Z,70.22
2017-12-09T05:31:30.343Z,75.35
2017-12-09T05:33:56.814Z,71.80
2017-12-09T05:36:23.853Z,68.93
2017-12-09T05:38:50.233Z,75.03
2017-12-09T05:41:16.586Z,66.62
2017-12-09T05:43:42.963Z,69.12
2017-12-09T05:46:09.398Z,79.30
2017-12-09T05:48:35.833Z,88.12
2017-12-09T05:51:02.266Z,88.53
2017-12-09T05:53:29.415Z,85.72
2017-12-09T05:55:55.850Z,81.00
2017-12-09T05:58:22.285Z,80.00
2017-12-09T06:00:48.828Z,73.43
2017-12-09T06:03:15.188Z,75.95
2017-12-09T06:05:41.607Z,69.53
2017-12-09T06:08:07.919Z,76.03
2017-12-09T06:10:34.355Z,69.97
2017-12-09T06:13:00.780Z,73.72
2017-12-09T06:15:27.247Z,79.20
2017-12-09T06:17:53.589Z,81.10
2017-12-09T06:20:19.993Z,85.32
2017-12-09T06:22:46.445Z,93.43
2017-12-09T06:25:12.867Z,79.10
2017-12-09T06:27:39.225Z,76.53
2017-12-09T06:30:05.627Z,75.15
2017-12-09T06:32:31.999Z,115.28
2017-12-09T06:34:58.358Z,117.57
2017-12-09T06:37:24.761Z,172.65
2017-12-09T06:39:51.093Z,139.00
2017-12-09T06:42:17.492Z,117.57
2017-12-09T06:44:43.930Z,103.18
2017-12-09T06:47:10.361Z,98.03
2017-12-09T06:49:36.796Z,97.05
2017-12-09T06:52:03.640Z,94.57
2017-12-09T06:54:30.074Z,85.90
2017-12-09T06:56:56.407Z,77.70
2017-12-09T06:59:22.781Z,86.80
2017-12-09T07:01:49.686Z,94.07
2017-12-09T07:04:16.120Z,79.60
2017-12-09T07:06:42.555Z,97.30
2017-12-09T07:09:08.921Z,103.47
2017-12-09T07:11:35.321Z,86.90
2017-12-09T07:14:01.757Z,82.73
2017-12-09T07:16:28.268Z,70.73
2017-12-09T07:18:54.673Z,74.33
2017-12-09T07:21:21.027Z,80.53
2017-12-09T07:23:47.469Z,86.53
2017-12-09T07:26:13.911Z,79.50
2017-12-09T07:28:40.380Z,83.97
2017-12-09T07:31:06.746Z,94.83
2017-12-09T07:33:33.065Z,123.83
2017-12-09T07:35:59.405Z,99.20
2017-12-09T07:38:25.794Z,104.03
2017-12-09T07:40:52.250Z,105.10
2017-12-09T07:43:19.382Z,103.57
2017-12-09T07:45:45.815Z,126.57
2017-12-09T07:48:12.249Z,113.63
2017-12-09T07:50:38.580Z,113.77
2017-12-09T07:53:04.949Z,122.87
2017-12-09T07:55:31.349Z,146.97
2017-12-09T07:57:57.783Z,134.80
2017-12-09T08:00:24.237Z,136.67
2017-12-09T08:02:50.754Z,125.43
2017-12-09T08:05:17.087Z,132.27
2017-12-09T08:07:43.521Z,105.93
2017-12-09T08:10:09.956Z,91.03
2017-12-09T08:12:36.403Z,77.43
2017-12-09T08:15:02.845Z,65.13
2017-12-09T08:17:29.229Z,58.70
2017-12-09T08:19:55.591Z,47.80
2017-12-09T08:22:22.026Z,39.13
2017-12-09T08:24:48.461Z,46.63
2017-12-09T08:27:14.963Z,49.23
2017-12-09T08:29:41.433Z,54.87
2017-12-09T08:32:07.911Z,59.93
2017-12-09T08:34:34.301Z,52.33
2017-12-09T08:37:01.131Z,50.80
2017-12-09T08:39:27.611Z,37.40
2017-12-09T08:41:54.050Z,39.03
2017-12-09T08:44:21.205Z,55.30
2017-12-09T08:46:47.600Z,48.30
2017-12-09T08:49:13.936Z,25.33
2017-12-09T08:51:40.367Z,37.00
2017-12-09T08:54:07.026Z,28.37
2017-12-09T08:56:33.853Z,19.37
2017-12-09T08:59:00.388Z,24.87
2017-12-09T09:01:27.263Z,19.23
2017-12-09T09:03:53.764Z,15.63
2017-12-09T09:06:20.409Z,20.67
2017-12-09T09:08:46.947Z,19.47
2017-12-09T09:11:13.380Z,21.20
2017-12-09T09:13:39.919Z,19.40
2017-12-09T09:16:06.353Z,18.70
2017-12-09T09:18:32.850Z,15.80
2017-12-09T09:20:59.257Z,19.10
2017-12-09T09:23:25.860Z,15.97
2017-12-09T09:25:52.192Z,18.80
2017-12-09T09:28:18.601Z,16.80
2017-12-09T09:30:45.061Z,13.77
2017-12-09T09:33:11.599Z,15.77
2017-12-09T09:35:37.930Z,20.97
2017-12-09T09:38:04.364Z,12.10
2017-12-09T09:40:30.799Z,14.47
2017-12-09T09:42:57.235Z,15.77
2017-12-09T09:45:23.565Z,11.87
2017-12-09T09:47:50.410Z,11.47
2017-12-09T09:50:16.852Z,10.03
2017-12-09T09:52:43.280Z,27.90
2017-12-09T09:55:09.714Z,16.00
2017-12-09T09:57:36.148Z,20.50
2017-12-09T10:00:02.480Z,10.70
2017-12-09T10:02:29.018Z,12.17
2017-12-09T10:04:55.350Z,15.87
2017-12-09T10:07:21.784Z,23.17
2017-12-09T10:09:48.220Z,29.13
2017-12-09T10:12:14.756Z,14.87
2017-12-09T10:14:41.702Z,13.47
2017-12-09T10:17:08.137Z,19.97
2017-12-09T10:19:35.187Z,29.60
2017-12-09T10:22:01.723Z,22.93
2017-12-09T10:24:28.159Z,13.73
2017-12-09T10:26:54.554Z,14.97
2017-12-09T10:29:20.925Z,8.60
2017-12-09T10:31:47.462Z,14.90
2017-12-09T10:34:13.898Z,18.57
2017-12-09T10:36:40.278Z,13.10
2017-12-09T10:39:06.624Z,17.20
2017-12-09T10:41:33.066Z,9.40
2017-12-09T10:43:59.508Z,12.33
2017-12-09T10:46:25.950Z,15.57
2017-12-09T10:48:52.298Z,11.70
2017-12-09T10:51:18.732Z,16.73
2017-12-09T10:53:45.170Z,9.90
2017-12-09T10:56:11.603Z,16.43
2017-12-09T10:58:37.935Z,25.83
2017-12-09T11:01:04.369Z,44.47
2017-12-09T11:03:30.905Z,14.07
2017-12-09T11:05:57.279Z,12.50
2017-12-09T11:08:23.672Z,10.13
2017-12-09T11:10:50.106Z,16.67
2017-12-09T11:13:16.817Z,8.87
2017-12-09T11:15:43.223Z,8.80
2017-12-09T11:18:09.618Z,6.40
2017-12-09T11:20:35.995Z,7.63
2017-12-09T11:23:02.462Z,7.97
2017-12-09T11:25:28.921Z,22.93
2017-12-09T11:27:55.289Z,10.97
2017-12-09T11:30:21.686Z,8.30
2017-12-09T11:32:48.223Z,8.70
2017-12-09T11:35:14.684Z,7.47
2017-12-09T11:37:41.092Z,9.73
2017-12-09T11:40:07.568Z,11.60
2017-12-09T11:42:33.962Z,7.43
2017-12-09T11:45:03.243Z,7.83
2017-12-09T11:47:30.069Z,7.03
2017-12-09T11:49:56.541Z,11.50
2017-12-09T11:52:23.079Z,7.53
2017-12-09T11:54:49.932Z,11.10
2017-12-09T11:57:16.253Z,10.20
2017-12-09T11:59:42.587Z,18.77
2017-12-09T12:02:09.124Z,21.10
2017-12-09T12:04:35.561Z,13.10
2017-12-09T12:07:02.096Z,31.17
2017-12-09T12:09:28.530Z,17.80
2017-12-09T12:11:55.205Z,16.80
2017-12-09T12:14:21.582Z,27.10
2017-12-09T12:16:47.936Z,9.97
2017-12-09T12:19:14.370Z,13.73
2017-12-09T12:21:40.913Z,18.60
2017-12-09T12:24:07.274Z,20.87
2017-12-09T12:26:33.674Z,18.37
2017-12-09T12:29:00.087Z,24.47
2017-12-09T12:31:27.029Z,14.50
2017-12-09T12:33:53.425Z,16.33
2017-12-09T12:36:19.821Z,27.60
2017-12-09T12:38:46.768Z,13.43
2017-12-09T12:41:13.203Z,10.47
2017-12-09T12:43:39.741Z,11.93
2017-12-09T12:46:06.225Z,16.17
2017-12-09T12:48:32.603Z,20.37
2017-12-09T12:50:58.980Z,15.73
2017-12-09T12:53:25.637Z,20.23
2017-12-09T12:55:52.073Z,16.67
2017-12-09T12:58:18.451Z,18.70
2017-12-09T13:00:44.886Z,13.00
2017-12-09T13:03:11.289Z,28.50
2017-12-09T13:05:37.625Z,16.23
2017-12-09T13:08:04.065Z,13.83
2017-12-09T13:10:30.507Z,14.03
2017-12-09T13:12:56.951Z,15.40
2017-12-09T13:15:23.286Z,20.33
2017-12-09T13:17:49.722Z,19.07
2017-12-09T13:20:16.156Z,16.60
2017-12-09T13:22:42.611Z,14.83
2017-12-09T13:25:08.966Z,12.87
2017-12-09T13:27:35.357Z,14.17
2017-12-09T13:30:01.799Z,21.27
2017-12-09T13:32:28.193Z,14.93
2017-12-09T13:34:54.662Z,15.77
2017-12-09T13:37:21.097Z,17.67
2017-12-09T13:39:47.465Z,14.97
2017-12-09T13:42:13.966Z,22.67
2017-12-09T13:44:40.399Z,11.27
2017-12-09T13:47:06.835Z,16.10
2017-12-09T13:49:33.210Z,12.73
2017-12-09T13:51:59.602Z,14.03
2017-12-09T13:54:26.035Z,10.10
2017-12-09T13:56:52.476Z,13.83
2017-12-09T13:59:18.905Z,14.40
2017-12-09T14:01:45.342Z,19.57
2017-12-09T14:04:11.774Z,18.80
2017-12-09T14:06:38.108Z,13.20
2017-12-09T14:09:04.950Z,13.47
2017-12-09T14:11:31.385Z,14.43
2017-12-09T14:13:57.819Z,18.23
2017-12-09T14:16:24.254Z,12.07
2017-12-09T14:18:50.690Z,16.30
2017-12-09T14:21:17.225Z,19.50
2017-12-09T14:23:43.660Z,13.93
2017-12-09T14:26:10.095Z,23.40
2017-12-09T14:28:36.538Z,20.53
2017-12-09T14:31:02.964Z,13.00
2017-12-09T14:33:29.419Z,14.87
2017-12-09T14:35:55.833Z,16.37
2017-12-09T14:38:22.267Z,16.67
2017-12-09T14:40:48.600Z,21.87
2017-12-09T14:43:14.932Z,22.60
2017-12-09T14:45:41.366Z,17.70
2017-12-09T14:48:07.855Z,16.00
2017-12-09T14:50:34.337Z,16.20
2017-12-09T14:53:00.773Z,14.50
2017-12-09T14:55:27.144Z,18.00
2017-12-09T14:57:53.474Z,12.90
2017-12-09T15:00:19.872Z,16.03
2017-12-09T15:02:46.409Z,19.27
2017-12-09T15:05:12.844Z,19.33
2017-12-09T15:07:39.173Z,15.97
2017-12-09T15:10:05.611Z,16.17
2017-12-09T15:12:32.033Z,16.37
2017-12-09T15:14:58.478Z,13.47
2017-12-09T15:17:24.914Z,13.57
2017-12-09T15:19:51.349Z,12.67
2017-12-09T15:22:17.783Z,14.87
2017-12-09T15:24:44.325Z,20.87
2017-12-09T15:27:10.756Z,26.00
2017-12-09T15:29:37.190Z,17.73
2017-12-09T15:32:03.560Z,24.37
2017-12-09T15:34:29.891Z,19.40
2017-12-09T15:36:56.253Z,20.83
2017-12-09T15:39:22.695Z,26.63
2017-12-09T15:41:49.138Z,19.23
2017-12-09T15:44:15.489Z,21.33
2017-12-09T15:46:41.944Z,16.83
2017-12-09T15:49:08.359Z,17.13
2017-12-09T15:51:34.725Z,19.93
2017-12-09T15:54:01.125Z,22.17
2017-12-09T15:56:27.498Z,23.80
2017-12-09T15:58:54.813Z,23.37
2017-12-09T16:01:21.147Z,25.50
2017-12-09T16:03:47.584Z,25.53
2017-12-09T16:06:13.919Z,27.43
2017-12-09T16:08:40.348Z,27.87
2017-12-09T16:11:06.781Z,25.03
2017-12-09T16:13:33.216Z,28.67
2017-12-09T16:15:59.652Z,25.87
2017-12-09T16:18:26.085Z,28.13
2017-12-09T16:20:52.520Z,30.80
2017-12-09T16:23:18.966Z,34.50
2017-12-09T16:25:45.390Z,23.00
2017-12-09T16:28:11.823Z,30.10
2017-12-09T16:30:38.463Z,28.97
2017-12-09T16:33:04.899Z,30.47
2017-12-09T16:35:31.435Z,31.83
2017-12-09T16:37:57.888Z,38.83
2017-12-09T16:40:24.239Z,35.37
2017-12-09T16:42:50.719Z,28.10
2017-12-09T16:45:17.105Z,29.90
2017-12-09T16:47:43.480Z,32.87
2017-12-09T16:50:09.837Z,33.30
2017-12-09T16:52:36.272Z,42.00
2017-12-09T16:55:02.709Z,30.60
2017-12-09T16:57:29.145Z,33.27
2017-12-09T16:59:55.576Z,29.47
2017-12-09T17:02:22.011Z,33.13
2017-12-09T17:04:48.445Z,34.13
2017-12-09T17:07:14.981Z,29.00
2017-12-09T17:09:41.351Z,28.20
2017-12-09T17:12:07.753Z,30.97
2017-12-09T17:14:34.184Z,29.27
2017-12-09T17:17:00.618Z,32.37
2017-12-09T17:19:27.057Z,36.60
2017-12-09T17:21:53.420Z,30.77
2017-12-09T17:24:19.820Z,33.20
2017-12-09T17:26:46.252Z,31.90
2017-12-09T17:29:12.621Z,24.47
2017-12-09T17:31:39.040Z,31.77
2017-12-09T17:34:05.453Z,32.20
2017-12-09T17:36:31.893Z,27.50
2017-12-09T17:38:58.258Z,28.43
2017-12-09T17:41:24.634Z,28.50
2017-12-09T17:43:51.078Z,30.70
2017-12-09T17:46:17.524Z,30.30
2017-12-09T17:48:43.856Z,28.37
2017-12-09T17:51:10.291Z,26.40
2017-12-09T17:53:36.727Z,29.77
2017-12-09T17:56:03.877Z,27.43
2017-12-09T17:58:30.312Z,23.67
2017-12-09T18:00:56.746Z,27.20
2017-12-09T18:03:23.488Z,25.87
2017-12-09T18:05:49.922Z,22.83
2017-12-09T18:08:16.358Z,22.30
2017-12-09T18:10:42.792Z,21.83
2017-12-09T18:13:09.227Z,26.70
2017-12-09T18:15:35.661Z,26.63
2017-12-09T18:18:02.096Z,25.13
2017-12-09T18:20:28.632Z,20.90
2017-12-09T18:22:55.067Z,28.77
2017-12-09T18:25:21.433Z,22.23
2017-12-09T18:27:47.835Z,26.80
2017-12-09T18:30:14.268Z,20.40
2017-12-09T18:32:40.705Z,21.37
2017-12-09T18:35:07.070Z,25.03
2017-12-09T18:37:33.470Z,28.00
2017-12-09T18:39:59.905Z,26.63
2017-12-09T18:42:26.339Z,23.03
2017-12-09T18:44:52.774Z,28.73
2017-12-09T18:47:19.209Z,26.77
2017-12-09T18:49:45.642Z,24.13
2017-12-09T18:52:12.077Z,36.77
2017-12-09T18:54:38.512Z,25.37
2017-12-09T18:57:04.846Z,25.23
2017-12-09T18:59:31.209Z,23.63
2017-12-09T19:01:57.610Z,31.13
2017-12-09T19:04:24.045Z,22.07
2017-12-09T19:06:50.582Z,24.60
2017-12-09T19:09:16.917Z,23.90
2017-12-09T19:11:43.405Z,22.53
2017-12-09T19:14:09.718Z,19.93
2017-12-09T19:16:36.117Z,21.50
2017-12-09T19:19:03.369Z,21.03
2017-12-09T19:21:29.805Z,15.70
2017-12-09T19:23:56.293Z,16.13
2017-12-09T19:26:22.734Z,14.63
2017-12-09T19:28:49.041Z,16.77
2017-12-09T19:31:15.461Z,16.27
2017-12-09T19:33:41.874Z,15.63
2017-12-09T19:36:08.411Z,22.80
2017-12-09T19:38:34.847Z,18.70
2017-12-09T19:41:01.217Z,16.50
2017-12-09T19:43:27.613Z,19.37
2017-12-09T19:45:54.048Z,26.13
2017-12-09T19:48:20.421Z,16.40
2017-12-09T19:50:46.815Z,19.80
2017-12-09T19:53:13.351Z,17.87
2017-12-09T19:55:39.721Z,14.60
2017-12-09T19:58:06.049Z,14.53
2017-12-09T20:00:32.419Z,17.20
2017-12-09T20:02:58.885Z,13.57
2017-12-09T20:05:25.252Z,15.47
2017-12-09T20:07:51.572Z,17.00
2017-12-09T20:10:17.919Z,19.30
2017-12-09T20:12:45.194Z,19.50
2017-12-09T20:15:11.573Z,19.23
2017-12-09T20:17:38.005Z,14.60
2017-12-09T20:20:04.440Z,13.30
2017-12-09T20:22:30.873Z,16.80
2017-12-09T20:24:57.308Z,16.67
2017-12-09T20:27:23.743Z,15.03
2017-12-09T20:29:50.177Z,11.60
2017-12-09T20:32:16.612Z,11.77
2017-12-09T20:34:43.053Z,13.93
2017-12-09T20:37:09.486Z,23.13
2017-12-09T20:39:35.851Z,15.03
2017-12-09T20:42:02.214Z,14.90
2017-12-09T20:44:28.656Z,14.50
2017-12-09T20:46:55.097Z,11.17
2017-12-09T20:49:21.655Z,10.80
2017-12-09T20:51:48.703Z,11.10
2017-12-09T20:54:15.092Z,12.90
2017-12-09T20:56:41.448Z,12.43
2017-12-09T20:59:07.885Z,12.63
2017-12-09T21:01:34.280Z,15.53
2017-12-09T21:04:00.606Z,11.50
2017-12-09T21:06:27.003Z,9.67
2017-12-09T21:08:53.368Z,11.93
2017-12-09T21:11:19.770Z,9.90
2017-12-09T21:13:46.224Z,9.07
2017-12-09T21:16:12.638Z,12.57
2017-12-09T21:18:38.972Z,15.30
2017-12-09T21:21:05.407Z,9.97
2017-12-09T21:23:32.633Z,11.03
2017-12-09T21:25:59.099Z,14.43
2017-12-09T21:28:25.468Z,20.50
2017-12-09T21:30:51.861Z,24.43
2017-12-09T21:33:18.296Z,13.20
2017-12-09T21:35:44.731Z,18.00
2017-12-09T21:38:11.166Z,13.20
2017-12-09T21:40:37.535Z,23.80
2017-12-09T21:43:03.932Z,14.63
2017-12-09T21:45:30.264Z,13.83
2017-12-09T21:47:56.803Z,15.50
2017-12-09T21:50:23.124Z,14.30
2017-12-09T21:52:49.568Z,12.20
2017-12-09T21:55:16.708Z,12.63
2017-12-09T21:57:43.154Z,8.53
2017-12-09T22:00:09.606Z,7.50
2017-12-09T22:02:36.023Z,7.10
2017-12-09T22:05:02.354Z,6.90
2017-12-09T22:07:28.721Z,7.13
2017-12-09T22:09:55.144Z,7.30
2017-12-09T22:12:21.558Z,7.20
2017-12-09T22:14:47.891Z,6.70
2017-12-09T22:17:14.322Z,6.73
2017-12-09T22:19:40.759Z,11.37
2017-12-09T22:22:07.125Z,12.10
2017-12-09T22:24:33.525Z,6.87
2017-12-09T22:26:59.857Z,8.30
2017-12-09T22:29:26.292Z,5.93
2017-12-09T22:31:52.627Z,6.30
2017-12-09T22:34:19.061Z,6.70
2017-12-09T22:36:45.494Z,7.03
2017-12-09T22:39:11.834Z,7.27
2017-12-09T22:41:38.367Z,7.50
2017-12-09T22:44:04.796Z,6.70
2017-12-09T22:46:31.169Z,7.77
2017-12-09T22:48:57.563Z,7.73
2017-12-09T22:51:24.001Z,7.10
2017-12-09T22:53:50.435Z,7.43
2017-12-09T22:56:16.869Z,8.00
2017-12-09T22:58:43.304Z,6.63
2017-12-09T23:01:09.738Z,12.37
2017-12-09T23:03:36.172Z,16.43
2017-12-09T23:06:02.586Z,12.80
2017-12-09T23:08:29.035Z,18.70
2017-12-09T23:10:55.474Z,15.13
2017-12-09T23:13:21.806Z,17.47
2017-12-09T23:15:48.345Z,13.27
2017-12-09T23:18:14.779Z,13.20
2017-12-09T23:20:41.188Z,12.10
2017-12-09T23:23:07.545Z,14.97
2017-12-09T23:25:33.980Z,9.80
2017-12-09T23:28:00.345Z,11.70
2017-12-09T23:30:26.746Z,13.60
2017-12-09T23:32:53.136Z,8.90
2017-12-09T23:35:19.542Z,10.03
2017-12-09T23:37:45.949Z,8.60
2017-12-09T23:40:12.385Z,13.57
2017-12-09T23:42:38.819Z,27.93
2017-12-09T23:45:05.181Z,12.27
2017-12-09T23:47:31.481Z,14.13
2017-12-09T23:49:57.815Z,16.90
2017-12-09T23:52:24.250Z,13.60
2017-12-09T23:54:50.683Z,13.33
2017-12-09T23:57:17.045Z,17.50
2017-12-09T23:59:43.414Z,15.57
